PWSweather.com
Personal Weather Stations
Station Observations

SkegnessGB

Lat: 53.147585, Lon: 0.345774

Elevation: 18

Station Type: Fine Offset WH3080

http://www.skegnessweather.info/

High Low Average
Temperature 46.0°F7.8°C 40.3°F4.6°C 43.3°F6.3°C
Dew Point 37.9°F3.3°C 29.2°F-1.6°C 33.3°F0.7°C
Winds 17.8 mph 28.6 kmh 4.4 mph 7.1 kmh 11.0 mph SE17.7 kmh SE
Wind Gusts 25.8 mph41.5 kmh 5.9 mph9.5 kmh 15.0 mph24.1 kmh
Humidity 82% 53% 68%
Pressure 30.06 in1017.9 mb 29.71 in1006.1 mb -
Precipitation 0.07 in1.8 mm - -
Hour Temp Dew Point Humidity Winds Wind Gusts Pressure Precip Precip Rate Daily Precip Total
12:00 AM 45.7°F7.6°C 31.7°F-0.2°C 58% 9.7 mph NNE15.6 kmh NNE 12.5 mph20.1 kmh 30.06 in1017.9 mb 0.00 in0.0 mm 0.00 in0.0 mm 0.00 in0.0 mm
12:10 AM 45.7°F7.6°C 31.3°F-0.4°C 57% 10.4 mph NNW16.7 kmh NNW 15.0 mph24.1 kmh 30.06 in1017.9 mb 0.00 in0.0 mm 0.00 in0.0 mm 0.00 in0.0 mm
12:20 AM 45.9°F7.7°C 30.1°F-1.1°C 54% 11.6 mph NNE18.7 kmh NNE 13.3 mph21.4 kmh 30.05 in1017.6 mb 0.00 in0.0 mm 0.00 in0.0 mm 0.00 in0.0 mm
12:30 AM 45.9°F7.7°C 30.6°F-0.8°C 55% 13.7 mph N22.0 kmh N 19.2 mph30.9 kmh 30.05 in1017.6 mb 0.00 in0.0 mm 0.00 in0.0 mm 0.00 in0.0 mm
12:40 AM 45.1°F7.3°C 31.7°F-0.2°C 59% 12.6 mph NNE20.3 kmh NNE 15.0 mph24.1 kmh 30.05 in1017.6 mb 0.00 in0.0 mm 0.00 in0.0 mm 0.00 in0.0 mm
12:50 AM 45.0°F7.2°C 32.3°F0.2°C 61% 10.4 mph N16.7 kmh N 10.8 mph17.4 kmh 30.05 in1017.6 mb 0.00 in0.0 mm 0.00 in0.0 mm 0.00 in0.0 mm
01:00 AM 45.5°F7.5°C 31.1°F-0.5°C 57% 10.3 mph NW16.6 kmh NW 15.0 mph24.1 kmh 30.04 in1017.3 mb 0.00 in0.0 mm 0.00 in0.0 mm 0.00 in0.0 mm
01:10 AM 45.7°F7.6°C 29.5°F-1.4°C 53% 10.4 mph N16.7 kmh N 11.8 mph19.0 kmh 30.04 in1017.3 mb 0.00 in0.0 mm 0.00 in0.0 mm 0.00 in0.0 mm
01:20 AM 45.7°F7.6°C 29.5°F-1.4°C 53% 11.6 mph N18.7 kmh N 15.0 mph24.1 kmh 30.03 in1016.9 mb 0.00 in0.0 mm 0.00 in0.0 mm 0.00 in0.0 mm
01:30 AM 45.7°F7.6°C 29.5°F-1.4°C 53% 12.0 mph NNE19.3 kmh NNE 17.5 mph28.2 kmh 30.03 in1016.9 mb 0.00 in0.0 mm 0.00 in0.0 mm 0.00 in0.0 mm
01:40 AM 45.7°F7.6°C 29.5°F-1.4°C 53% 9.9 mph N15.9 kmh N 12.5 mph20.1 kmh 30.02 in1016.6 mb 0.00 in0.0 mm 0.00 in0.0 mm 0.00 in0.0 mm
01:50 AM 45.9°F7.7°C 30.1°F-1.1°C 54% 11.8 mph NNE19.0 kmh NNE 13.3 mph21.4 kmh 30.02 in1016.6 mb 0.00 in0.0 mm 0.00 in0.0 mm 0.00 in0.0 mm
02:00 AM 46.0°F7.8°C 29.8°F-1.2°C 53% 14.5 mph NE23.3 kmh NE 17.5 mph28.2 kmh 30.01 in1016.3 mb 0.00 in0.0 mm 0.00 in0.0 mm 0.00 in0.0 mm
02:10 AM 46.0°F7.8°C 30.8°F-0.7°C 55% 13.3 mph NE21.4 kmh NE 18.5 mph29.8 kmh 30.01 in1016.3 mb 0.00 in0.0 mm 0.00 in0.0 mm 0.00 in0.0 mm
02:20 AM 46.0°F7.8°C 30.8°F-0.7°C 55% 10.4 mph N16.7 kmh N 13.3 mph21.4 kmh 30.01 in1016.3 mb 0.00 in0.0 mm 0.00 in0.0 mm 0.00 in0.0 mm
02:30 AM 45.7°F7.6°C 30.4°F-0.9°C 55% 11.8 mph W19.0 kmh W 16.7 mph26.9 kmh 30.00 in1015.9 mb 0.00 in0.0 mm 0.00 in0.0 mm 0.00 in0.0 mm
02:40 AM 44.8°F7.1°C 32.1°F0.1°C 61% 11.9 mph N19.2 kmh N 16.0 mph25.7 kmh 30.01 in1016.3 mb 0.00 in0.0 mm 0.00 in0.0 mm 0.00 in0.0 mm
02:50 AM 44.2°F6.8°C 34.0°F1.1°C 67% 9.3 mph N15.0 kmh N 11.8 mph19.0 kmh 29.99 in1015.6 mb 0.00 in0.0 mm 0.00 in0.0 mm 0.00 in0.0 mm
03:00 AM 44.6°F7.0°C 32.8°F0.4°C 63% 10.6 mph NE17.1 kmh NE 16.7 mph26.9 kmh 29.99 in1015.6 mb 0.00 in0.0 mm 0.00 in0.0 mm 0.00 in0.0 mm
03:10 AM 45.3°F7.4°C 29.2°F-1.6°C 53% 13.5 mph NE21.7 kmh NE 16.0 mph25.7 kmh 29.99 in1015.6 mb 0.00 in0.0 mm 0.00 in0.0 mm 0.00 in0.0 mm
03:20 AM 45.7°F7.6°C 29.5°F-1.4°C 53% 15.1 mph N24.3 kmh N 18.5 mph29.8 kmh 29.99 in1015.6 mb 0.00 in0.0 mm 0.00 in0.0 mm 0.00 in0.0 mm
03:30 AM 45.3°F7.4°C 31.0°F-0.6°C 57% 11.7 mph N18.8 kmh N 20.2 mph32.5 kmh 29.98 in1015.2 mb 0.00 in0.0 mm 0.00 in0.0 mm 0.00 in0.0 mm
03:40 AM 45.3°F7.4°C 32.2°F0.1°C 60% 9.6 mph N15.4 kmh N 16.0 mph25.7 kmh 29.98 in1015.2 mb 0.00 in0.0 mm 0.00 in0.0 mm 0.00 in0.0 mm
03:50 AM 45.3°F7.4°C 30.5°F-0.8°C 56% 14.8 mph NNE23.8 kmh NNE 20.9 mph33.6 kmh 29.98 in1015.2 mb 0.00 in0.0 mm 0.00 in0.0 mm 0.00 in0.0 mm
04:00 AM 45.3°F7.4°C 29.6°F-1.3°C 54% 13.6 mph N21.9 kmh N 17.5 mph28.2 kmh 29.98 in1015.2 mb 0.00 in0.0 mm 0.00 in0.0 mm 0.00 in0.0 mm
04:10 AM 45.3°F7.4°C 30.5°F-0.8°C 56% 16.5 mph NE26.6 kmh NE 18.5 mph29.8 kmh 29.97 in1014.9 mb 0.00 in0.0 mm 0.00 in0.0 mm 0.00 in0.0 mm
04:20 AM 45.3°F7.4°C 30.1°F-1.1°C 55% 13.7 mph NNE22.0 kmh NNE 19.2 mph30.9 kmh 29.96 in1014.6 mb 0.00 in0.0 mm 0.00 in0.0 mm 0.00 in0.0 mm
04:30 AM 45.1°F7.3°C 29.9°F-1.2°C 55% 11.8 mph E19.0 kmh E 15.0 mph24.1 kmh 29.96 in1014.6 mb 0.00 in0.0 mm 0.00 in0.0 mm 0.00 in0.0 mm
04:40 AM 45.1°F7.3°C 30.8°F-0.7°C 57% 11.3 mph N18.2 kmh N 13.3 mph21.4 kmh 29.96 in1014.6 mb 0.00 in0.0 mm 0.00 in0.0 mm 0.00 in0.0 mm
04:50 AM 45.1°F7.3°C 31.2°F-0.4°C 58% 14.0 mph N22.5 kmh N 16.7 mph26.9 kmh 29.96 in1014.6 mb 0.00 in0.0 mm 0.00 in0.0 mm 0.00 in0.0 mm
05:00 AM 45.3°F7.4°C 31.0°F-0.6°C 57% 15.1 mph N24.3 kmh N 25.1 mph40.4 kmh 29.96 in1014.6 mb 0.00 in0.0 mm 0.00 in0.0 mm 0.00 in0.0 mm
05:10 AM 45.1°F7.3°C 31.7°F-0.2°C 59% 16.6 mph NE26.7 kmh NE 16.0 mph25.7 kmh 29.96 in1014.6 mb 0.00 in0.0 mm 0.00 in0.0 mm 0.00 in0.0 mm
05:20 AM 45.1°F7.3°C 32.1°F0.1°C 60% 15.6 mph NE25.1 kmh NE 16.7 mph26.9 kmh 29.95 in1014.2 mb 0.00 in0.0 mm 0.00 in0.0 mm 0.00 in0.0 mm
05:30 AM 44.8°F7.1°C 29.6°F-1.3°C 55% 14.2 mph NNE22.9 kmh NNE 16.7 mph26.9 kmh 29.95 in1014.2 mb 0.00 in0.0 mm 0.00 in0.0 mm 0.00 in0.0 mm
05:40 AM 44.6°F7.0°C 30.7°F-0.7°C 58% 15.1 mph NW24.3 kmh NW 15.0 mph24.1 kmh 29.95 in1014.2 mb 0.00 in0.0 mm 0.00 in0.0 mm 0.00 in0.0 mm
05:50 AM 44.4°F6.9°C 32.6°F0.3°C 63% 13.4 mph NNE21.6 kmh NNE 17.5 mph28.2 kmh 29.95 in1014.2 mb 0.00 in0.0 mm 0.00 in0.0 mm 0.00 in0.0 mm
06:00 AM 44.4°F6.9°C 32.6°F0.3°C 63% 13.4 mph N21.6 kmh N 14.3 mph23.0 kmh 29.95 in1014.2 mb 0.00 in0.0 mm 0.00 in0.0 mm 0.00 in0.0 mm
06:10 AM 44.6°F7.0°C 29.9°F-1.2°C 56% 17.8 mph N28.6 kmh N 23.4 mph37.7 kmh 29.94 in1013.9 mb 0.00 in0.0 mm 0.00 in0.0 mm 0.00 in0.0 mm
06:20 AM 44.4°F6.9°C 32.2°F0.1°C 62% 12.5 mph N20.1 kmh N 17.5 mph28.2 kmh 29.94 in1013.9 mb 0.00 in0.0 mm 0.00 in0.0 mm 0.00 in0.0 mm
06:30 AM 44.4°F6.9°C 31.8°F-0.1°C 61% 12.9 mph N20.8 kmh N 15.0 mph24.1 kmh 29.94 in1013.9 mb 0.00 in0.0 mm 0.00 in0.0 mm 0.00 in0.0 mm
06:40 AM 44.4°F6.9°C 31.4°F-0.3°C 60% 14.3 mph NE23.0 kmh NE 16.0 mph25.7 kmh 29.94 in1013.9 mb 0.00 in0.0 mm 0.00 in0.0 mm 0.00 in0.0 mm
06:50 AM 44.6°F7.0°C 30.3°F-0.9°C 57% 12.1 mph NE19.5 kmh NE 16.0 mph25.7 kmh 29.94 in1013.9 mb 0.00 in0.0 mm 0.00 in0.0 mm 0.00 in0.0 mm
07:00 AM 44.6°F7.0°C 32.0°F0.0°C 61% 13.2 mph N21.2 kmh N 16.0 mph25.7 kmh 29.94 in1013.9 mb 0.00 in0.0 mm 0.00 in0.0 mm 0.00 in0.0 mm
07:10 AM 44.4°F6.9°C 32.6°F0.3°C 63% 12.1 mph NW19.5 kmh NW 14.3 mph23.0 kmh 29.93 in1013.5 mb 0.00 in0.0 mm 0.00 in0.0 mm 0.00 in0.0 mm
07:20 AM 44.6°F7.0°C 31.6°F-0.2°C 60% 14.2 mph NNE22.9 kmh NNE 19.2 mph30.9 kmh 29.93 in1013.5 mb 0.00 in0.0 mm 0.00 in0.0 mm 0.00 in0.0 mm
07:30 AM 44.8°F7.1°C 31.7°F-0.2°C 60% 12.3 mph N19.8 kmh N 17.5 mph28.2 kmh 29.93 in1013.5 mb 0.00 in0.0 mm 0.00 in0.0 mm 0.00 in0.0 mm
07:40 AM 44.8°F7.1°C 31.3°F-0.4°C 59% 13.2 mph N21.2 kmh N 19.2 mph30.9 kmh 29.93 in1013.5 mb 0.00 in0.0 mm 0.00 in0.0 mm 0.00 in0.0 mm
07:50 AM 44.4°F6.9°C 32.6°F0.3°C 63% 10.7 mph N17.2 kmh N 14.3 mph23.0 kmh 29.93 in1013.5 mb 0.00 in0.0 mm 0.00 in0.0 mm 0.00 in0.0 mm
08:00 AM 44.8°F7.1°C 31.3°F-0.4°C 59% 12.3 mph N19.8 kmh N 18.5 mph29.8 kmh 29.92 in1013.2 mb 0.00 in0.0 mm 0.00 in0.0 mm 0.00 in0.0 mm
08:10 AM 45.0°F7.2°C 31.9°F-0.1°C 60% 14.0 mph NNE22.5 kmh NNE 18.5 mph29.8 kmh 29.92 in1013.2 mb 0.00 in0.0 mm 0.00 in0.0 mm 0.00 in0.0 mm
08:20 AM 44.8°F7.1°C 32.1°F0.1°C 61% 12.5 mph NNE20.1 kmh NNE 13.3 mph21.4 kmh 29.92 in1013.2 mb 0.00 in0.0 mm 0.00 in0.0 mm 0.00 in0.0 mm
08:30 AM 43.7°F6.5°C 34.6°F1.4°C 70% 12.2 mph NNE19.6 kmh NNE 16.0 mph25.7 kmh 29.91 in1012.9 mb 0.00 in0.0 mm 0.00 in0.0 mm 0.00 in0.0 mm
08:40 AM 43.9°F6.6°C 35.1°F1.7°C 71% 13.3 mph N21.4 kmh N 25.8 mph41.5 kmh 29.91 in1012.9 mb 0.00 in0.0 mm 0.00 in0.0 mm 0.00 in0.0 mm
08:50 AM 43.2°F6.2°C 35.1°F1.7°C 73% 14.5 mph N23.3 kmh N 20.2 mph32.5 kmh 29.91 in1012.9 mb 0.00 in0.0 mm 0.00 in0.0 mm 0.00 in0.0 mm
09:00 AM 42.8°F6.0°C 35.4°F1.9°C 75% 14.1 mph NE22.7 kmh NE 17.5 mph28.2 kmh 29.90 in1012.5 mb 0.00 in0.0 mm 0.00 in0.0 mm 0.00 in0.0 mm
09:10 AM 43.3°F6.3°C 35.6°F2.0°C 74% 14.0 mph NE22.5 kmh NE 11.8 mph19.0 kmh 29.89 in1012.2 mb 0.00 in0.0 mm 0.00 in0.0 mm 0.00 in0.0 mm
09:20 AM 43.9°F6.6°C 35.8°F2.1°C 73% 13.6 mph NNE21.9 kmh NNE 16.7 mph26.9 kmh 29.89 in1012.2 mb 0.00 in0.0 mm 0.00 in0.0 mm 0.00 in0.0 mm
09:30 AM 42.8°F6.0°C 35.4°F1.9°C 75% 14.4 mph NNE23.2 kmh NNE 15.0 mph24.1 kmh 29.89 in1012.2 mb 0.00 in0.0 mm 0.00 in0.0 mm 0.00 in0.0 mm
09:40 AM 42.1°F5.6°C 36.4°F2.4°C 80% 12.9 mph NNE20.8 kmh NNE 13.3 mph21.4 kmh 29.89 in1012.2 mb 0.01 in0.3 mm 0.06 in1.5 mm 0.01 in0.3 mm
09:50 AM 42.4°F5.8°C 37.3°F2.9°C 82% 10.7 mph NE17.2 kmh NE 12.5 mph20.1 kmh 29.89 in1012.2 mb 0.01 in0.3 mm 0.00 in0.0 mm 0.01 in0.3 mm
10:00 AM 42.6°F5.9°C 37.5°F3.1°C 82% 12.4 mph NNE20.0 kmh NNE 15.0 mph24.1 kmh 29.88 in1011.9 mb 0.01 in0.3 mm 0.00 in0.0 mm 0.01 in0.3 mm
10:10 AM 43.3°F6.3°C 37.9°F3.3°C 81% 14.6 mph NE23.5 kmh NE 14.3 mph23.0 kmh 29.89 in1012.2 mb 0.01 in0.3 mm 0.00 in0.0 mm 0.01 in0.3 mm
10:20 AM 43.7°F6.5°C 37.9°F3.3°C 80% 11.5 mph N18.5 kmh N 14.3 mph23.0 kmh 29.88 in1011.9 mb 0.01 in0.3 mm 0.00 in0.0 mm 0.01 in0.3 mm
10:30 AM 43.5°F6.4°C 37.1°F2.8°C 78% 11.5 mph N18.5 kmh N 14.3 mph23.0 kmh 29.87 in1011.5 mb 0.01 in0.3 mm 0.00 in0.0 mm 0.01 in0.3 mm
10:40 AM 43.7°F6.5°C 36.6°F2.6°C 76% 12.7 mph N20.4 kmh N 15.0 mph24.1 kmh 29.86 in1011.2 mb 0.00 in0.0 mm 0.00 in0.0 mm 0.01 in0.3 mm
10:50 AM 44.1°F6.7°C 35.6°F2.0°C 72% 15.0 mph N24.1 kmh N 18.5 mph29.8 kmh 29.86 in1011.2 mb 0.00 in0.0 mm 0.00 in0.0 mm 0.01 in0.3 mm
11:00 AM 44.2°F6.8°C 35.4°F1.9°C 71% 15.1 mph N24.3 kmh N 18.5 mph29.8 kmh 29.86 in1011.2 mb 0.00 in0.0 mm 0.00 in0.0 mm 0.01 in0.3 mm
11:10 AM 43.9°F6.6°C 34.7°F1.5°C 70% 11.0 mph NE17.7 kmh NE 16.7 mph26.9 kmh 29.85 in1010.8 mb 0.00 in0.0 mm 0.00 in0.0 mm 0.01 in0.3 mm
11:20 AM 44.1°F6.7°C 34.9°F1.6°C 70% 13.8 mph N22.2 kmh N 15.0 mph24.1 kmh 29.84 in1010.5 mb 0.00 in0.0 mm 0.00 in0.0 mm 0.01 in0.3 mm
11:30 AM 44.1°F6.7°C 34.2°F1.2°C 68% 13.0 mph N20.9 kmh N 16.0 mph25.7 kmh 29.84 in1010.5 mb 0.00 in0.0 mm 0.00 in0.0 mm 0.01 in0.3 mm
11:40 AM 44.1°F6.7°C 34.2°F1.2°C 68% 11.7 mph N18.8 kmh N 16.0 mph25.7 kmh 29.84 in1010.5 mb 0.00 in0.0 mm 0.00 in0.0 mm 0.01 in0.3 mm
11:50 AM 43.7°F6.5°C 34.6°F1.4°C 70% 12.0 mph N19.3 kmh N 13.3 mph21.4 kmh 29.84 in1010.5 mb 0.00 in0.0 mm 0.00 in0.0 mm 0.01 in0.3 mm
12:00 PM 43.7°F6.5°C 34.9°F1.6°C 71% 13.6 mph NNE21.9 kmh NNE 17.5 mph28.2 kmh 29.84 in1010.5 mb 0.00 in0.0 mm 0.00 in0.0 mm 0.01 in0.3 mm
12:10 PM 43.2°F6.2°C 35.1°F1.7°C 73% 10.2 mph N16.4 kmh N 14.3 mph23.0 kmh 29.83 in1010.2 mb 0.00 in0.0 mm 0.00 in0.0 mm 0.01 in0.3 mm
12:20 PM 43.0°F6.1°C 35.9°F2.2°C 76% 9.0 mph N14.5 kmh N 11.8 mph19.0 kmh 29.83 in1010.2 mb 0.00 in0.0 mm 0.00 in0.0 mm 0.01 in0.3 mm
12:30 PM 42.6°F5.9°C 35.9°F2.2°C 77% 9.6 mph N15.4 kmh N 13.3 mph21.4 kmh 29.82 in1009.8 mb 0.00 in0.0 mm 0.00 in0.0 mm 0.01 in0.3 mm
12:40 PM 42.8°F6.0°C 36.1°F2.3°C 77% 10.7 mph N17.2 kmh N 16.0 mph25.7 kmh 29.82 in1009.8 mb 0.00 in0.0 mm 0.00 in0.0 mm 0.01 in0.3 mm
12:50 PM 42.8°F6.0°C 36.1°F2.3°C 77% 13.6 mph NNE21.9 kmh NNE 20.2 mph32.5 kmh 29.82 in1009.8 mb 0.00 in0.0 mm 0.00 in0.0 mm 0.01 in0.3 mm
01:00 PM 42.4°F5.8°C 35.4°F1.9°C 76% 12.8 mph NE20.6 kmh NE 20.2 mph32.5 kmh 29.81 in1009.5 mb 0.00 in0.0 mm 0.00 in0.0 mm 0.01 in0.3 mm
01:10 PM 43.0°F6.1°C 35.6°F2.0°C 75% 9.5 mph N15.3 kmh N 12.5 mph20.1 kmh 29.81 in1009.5 mb 0.00 in0.0 mm 0.00 in0.0 mm 0.01 in0.3 mm
01:20 PM 41.9°F5.5°C 34.2°F1.2°C 74% 11.3 mph NNE18.2 kmh NNE 13.3 mph21.4 kmh 29.82 in1009.8 mb 0.00 in0.0 mm 0.00 in0.0 mm 0.01 in0.3 mm
01:30 PM 41.4°F5.2°C 34.4°F1.3°C 76% 9.7 mph NNE15.6 kmh NNE 13.3 mph21.4 kmh 29.80 in1009.1 mb 0.00 in0.0 mm 0.00 in0.0 mm 0.01 in0.3 mm
01:40 PM 41.9°F5.5°C 35.2°F1.8°C 77% 13.3 mph N21.4 kmh N 16.7 mph26.9 kmh 29.80 in1009.1 mb 0.00 in0.0 mm 0.00 in0.0 mm 0.01 in0.3 mm
01:50 PM 42.4°F5.8°C 34.7°F1.5°C 74% 12.4 mph NNE20.0 kmh NNE 16.0 mph25.7 kmh 29.80 in1009.1 mb 0.01 in0.3 mm 0.06 in1.5 mm 0.02 in0.5 mm
02:00 PM 41.9°F5.5°C 34.2°F1.2°C 74% 12.3 mph NE19.8 kmh NE 16.0 mph25.7 kmh 29.80 in1009.1 mb 0.01 in0.3 mm 0.00 in0.0 mm 0.02 in0.5 mm
02:10 PM 42.3°F5.7°C 33.9°F1.1°C 72% 15.5 mph NNE24.9 kmh NNE 16.0 mph25.7 kmh 29.80 in1009.1 mb 0.01 in0.3 mm 0.00 in0.0 mm 0.02 in0.5 mm
02:20 PM 43.0°F6.1°C 33.9°F1.1°C 70% 15.3 mph NE24.6 kmh NE 22.6 mph36.4 kmh 29.79 in1008.8 mb 0.01 in0.3 mm 0.00 in0.0 mm 0.02 in0.5 mm
02:30 PM 43.0°F6.1°C 34.2°F1.2°C 71% 12.7 mph N20.4 kmh N 14.3 mph23.0 kmh 29.79 in1008.8 mb 0.01 in0.3 mm 0.00 in0.0 mm 0.02 in0.5 mm
02:40 PM 41.9°F5.5°C 34.2°F1.2°C 74% 12.2 mph NNW19.6 kmh NNW 17.5 mph28.2 kmh 29.79 in1008.8 mb 0.01 in0.3 mm 0.00 in0.0 mm 0.02 in0.5 mm
02:50 PM 41.4°F5.2°C 33.0°F0.6°C 72% 13.7 mph N22.0 kmh N 18.5 mph29.8 kmh 29.79 in1008.8 mb 0.00 in0.0 mm 0.00 in0.0 mm 0.02 in0.5 mm
03:00 PM 41.0°F5.0°C 34.0°F1.1°C 76% 14.3 mph NNE23.0 kmh NNE 18.5 mph29.8 kmh 29.79 in1008.8 mb 0.00 in0.0 mm 0.00 in0.0 mm 0.02 in0.5 mm
03:10 PM 41.0°F5.0°C 34.0°F1.1°C 76% 12.8 mph NE20.6 kmh NE 14.3 mph23.0 kmh 29.79 in1008.8 mb 0.00 in0.0 mm 0.00 in0.0 mm 0.02 in0.5 mm
03:20 PM 41.4°F5.2°C 34.7°F1.5°C 77% 8.8 mph N14.2 kmh N 13.3 mph21.4 kmh 29.79 in1008.8 mb 0.00 in0.0 mm 0.00 in0.0 mm 0.02 in0.5 mm
03:30 PM 41.7°F5.4°C 33.4°F0.8°C 72% 13.2 mph NNE21.2 kmh NNE 17.5 mph28.2 kmh 29.78 in1008.5 mb 0.00 in0.0 mm 0.00 in0.0 mm 0.02 in0.5 mm
03:40 PM 41.7°F5.4°C 33.0°F0.6°C 71% 10.2 mph N16.4 kmh N 15.0 mph24.1 kmh 29.79 in1008.8 mb 0.00 in0.0 mm 0.00 in0.0 mm 0.02 in0.5 mm
03:50 PM 41.4°F5.2°C 33.0°F0.6°C 72% 8.7 mph N14.0 kmh N 12.5 mph20.1 kmh 29.79 in1008.8 mb 0.00 in0.0 mm 0.00 in0.0 mm 0.02 in0.5 mm
04:00 PM 41.7°F5.4°C 33.4°F0.8°C 72% 11.3 mph N18.2 kmh N 15.0 mph24.1 kmh 29.79 in1008.8 mb 0.00 in0.0 mm 0.00 in0.0 mm 0.02 in0.5 mm
04:10 PM 41.7°F5.4°C 33.0°F0.6°C 71% 11.0 mph NW17.7 kmh NW 19.2 mph30.9 kmh 29.79 in1008.8 mb 0.00 in0.0 mm 0.00 in0.0 mm 0.02 in0.5 mm
04:20 PM 42.3°F5.7°C 33.5°F0.8°C 71% 10.8 mph NW17.4 kmh NW 13.3 mph21.4 kmh 29.79 in1008.8 mb 0.00 in0.0 mm 0.00 in0.0 mm 0.02 in0.5 mm
04:30 PM 42.1°F5.6°C 33.4°F0.8°C 71% 8.6 mph N13.8 kmh N 10.8 mph17.4 kmh 29.79 in1008.8 mb 0.00 in0.0 mm 0.00 in0.0 mm 0.02 in0.5 mm
04:40 PM 41.9°F5.5°C 32.8°F0.4°C 70% 9.4 mph N15.1 kmh N 11.8 mph19.0 kmh 29.80 in1009.1 mb 0.00 in0.0 mm 0.00 in0.0 mm 0.02 in0.5 mm
04:50 PM 42.1°F5.6°C 32.6°F0.3°C 69% 10.5 mph NNW16.9 kmh NNW 12.5 mph20.1 kmh 29.79 in1008.8 mb 0.00 in0.0 mm 0.00 in0.0 mm 0.02 in0.5 mm
05:00 PM 42.3°F5.7°C 32.8°F0.4°C 69% 9.4 mph N15.1 kmh N 11.8 mph19.0 kmh 29.79 in1008.8 mb 0.00 in0.0 mm 0.00 in0.0 mm 0.02 in0.5 mm
05:10 PM 42.3°F5.7°C 33.2°F0.7°C 70% 8.5 mph SE13.7 kmh SE 8.4 mph13.5 kmh 29.79 in1008.8 mb 0.00 in0.0 mm 0.00 in0.0 mm 0.02 in0.5 mm
05:20 PM 42.3°F5.7°C 33.2°F0.7°C 70% 10.2 mph N16.4 kmh N 11.8 mph19.0 kmh 29.79 in1008.8 mb 0.00 in0.0 mm 0.00 in0.0 mm 0.02 in0.5 mm
05:30 PM 42.3°F5.7°C 32.8°F0.4°C 69% 10.0 mph N16.1 kmh N 11.8 mph19.0 kmh 29.78 in1008.5 mb 0.00 in0.0 mm 0.00 in0.0 mm 0.02 in0.5 mm
05:40 PM 42.4°F5.8°C 33.0°F0.6°C 69% 12.1 mph N19.5 kmh N 14.3 mph23.0 kmh 29.79 in1008.8 mb 0.00 in0.0 mm 0.00 in0.0 mm 0.02 in0.5 mm
05:50 PM 42.6°F5.9°C 33.5°F0.8°C 70% 9.3 mph N15.0 kmh N 10.8 mph17.4 kmh 29.79 in1008.8 mb 0.00 in0.0 mm 0.00 in0.0 mm 0.02 in0.5 mm
06:00 PM 42.4°F5.8°C 33.0°F0.6°C 69% 9.6 mph NNW15.4 kmh NNW 13.3 mph21.4 kmh 29.78 in1008.5 mb 0.00 in0.0 mm 0.00 in0.0 mm 0.02 in0.5 mm
06:10 PM 42.4°F5.8°C 33.3°F0.7°C 70% 9.1 mph NE14.6 kmh NE 15.0 mph24.1 kmh 29.78 in1008.5 mb 0.00 in0.0 mm 0.00 in0.0 mm 0.02 in0.5 mm
06:20 PM 42.4°F5.8°C 33.3°F0.7°C 70% 10.0 mph N16.1 kmh N 13.3 mph21.4 kmh 29.78 in1008.5 mb 0.00 in0.0 mm 0.00 in0.0 mm 0.02 in0.5 mm
06:30 PM 42.6°F5.9°C 33.5°F0.8°C 70% 10.5 mph N16.9 kmh N 12.5 mph20.1 kmh 29.78 in1008.5 mb 0.00 in0.0 mm 0.00 in0.0 mm 0.02 in0.5 mm
06:40 PM 42.4°F5.8°C 33.7°F0.9°C 71% 7.9 mph N12.7 kmh N 14.3 mph23.0 kmh 29.78 in1008.5 mb 0.00 in0.0 mm 0.00 in0.0 mm 0.02 in0.5 mm
06:50 PM 42.1°F5.6°C 33.7°F0.9°C 72% 8.0 mph NE12.9 kmh NE 9.1 mph14.6 kmh 29.78 in1008.5 mb 0.00 in0.0 mm 0.00 in0.0 mm 0.02 in0.5 mm
07:00 PM 42.1°F5.6°C 34.0°F1.1°C 73% 7.9 mph N12.7 kmh N 7.6 mph12.2 kmh 29.78 in1008.5 mb 0.00 in0.0 mm 0.00 in0.0 mm 0.02 in0.5 mm
07:10 PM 42.1°F5.6°C 34.0°F1.1°C 73% 8.9 mph W14.3 kmh W 11.8 mph19.0 kmh 29.77 in1008.1 mb 0.00 in0.0 mm 0.00 in0.0 mm 0.02 in0.5 mm
07:20 PM 42.3°F5.7°C 34.2°F1.2°C 73% 8.2 mph NNW13.2 kmh NNW 10.8 mph17.4 kmh 29.77 in1008.1 mb 0.00 in0.0 mm 0.00 in0.0 mm 0.02 in0.5 mm
07:30 PM 42.3°F5.7°C 34.2°F1.2°C 73% 9.1 mph N14.6 kmh N 13.3 mph21.4 kmh 29.77 in1008.1 mb 0.00 in0.0 mm 0.00 in0.0 mm 0.02 in0.5 mm
07:40 PM 42.3°F5.7°C 34.2°F1.2°C 73% 7.8 mph N12.6 kmh N 10.8 mph17.4 kmh 29.77 in1008.1 mb 0.00 in0.0 mm 0.00 in0.0 mm 0.02 in0.5 mm
07:50 PM 42.1°F5.6°C 34.0°F1.1°C 73% 11.0 mph N17.7 kmh N 14.3 mph23.0 kmh 29.77 in1008.1 mb 0.00 in0.0 mm 0.00 in0.0 mm 0.02 in0.5 mm
08:00 PM 41.9°F5.5°C 33.9°F1.1°C 73% 10.7 mph NE17.2 kmh NE 10.8 mph17.4 kmh 29.76 in1007.8 mb 0.00 in0.0 mm 0.00 in0.0 mm 0.02 in0.5 mm
08:10 PM 42.1°F5.6°C 34.0°F1.1°C 73% 9.8 mph N15.8 kmh N 13.3 mph21.4 kmh 29.76 in1007.8 mb 0.00 in0.0 mm 0.00 in0.0 mm 0.02 in0.5 mm
08:20 PM 42.3°F5.7°C 33.5°F0.8°C 71% 11.1 mph NE17.9 kmh NE 17.5 mph28.2 kmh 29.76 in1007.8 mb 0.00 in0.0 mm 0.00 in0.0 mm 0.02 in0.5 mm
08:30 PM 41.9°F5.5°C 34.2°F1.2°C 74% 8.7 mph NE14.0 kmh NE 13.3 mph21.4 kmh 29.75 in1007.5 mb 0.00 in0.0 mm 0.00 in0.0 mm 0.02 in0.5 mm
08:40 PM 42.1°F5.6°C 34.0°F1.1°C 73% 7.6 mph N12.2 kmh N 12.5 mph20.1 kmh 29.75 in1007.5 mb 0.00 in0.0 mm 0.00 in0.0 mm 0.02 in0.5 mm
08:50 PM 42.1°F5.6°C 34.0°F1.1°C 73% 9.7 mph N15.6 kmh N 11.8 mph19.0 kmh 29.74 in1007.1 mb 0.00 in0.0 mm 0.00 in0.0 mm 0.02 in0.5 mm
09:00 PM 42.1°F5.6°C 33.7°F0.9°C 72% 9.3 mph N15.0 kmh N 14.3 mph23.0 kmh 29.74 in1007.1 mb 0.00 in0.0 mm 0.00 in0.0 mm 0.02 in0.5 mm
09:10 PM 42.3°F5.7°C 33.9°F1.1°C 72% 8.4 mph NNW13.5 kmh NNW 15.0 mph24.1 kmh 29.75 in1007.5 mb 0.00 in0.0 mm 0.00 in0.0 mm 0.02 in0.5 mm
09:20 PM 41.7°F5.4°C 33.7°F0.9°C 73% 9.8 mph NNE15.8 kmh NNE 11.8 mph19.0 kmh 29.74 in1007.1 mb 0.00 in0.0 mm 0.00 in0.0 mm 0.02 in0.5 mm
09:30 PM 41.9°F5.5°C 34.6°F1.4°C 75% 8.4 mph NE13.5 kmh NE 15.0 mph24.1 kmh 29.74 in1007.1 mb 0.00 in0.0 mm 0.00 in0.0 mm 0.02 in0.5 mm
09:40 PM 42.1°F5.6°C 34.4°F1.3°C 74% 7.5 mph N12.1 kmh N 8.4 mph13.5 kmh 29.73 in1006.8 mb 0.00 in0.0 mm 0.00 in0.0 mm 0.02 in0.5 mm
09:50 PM 42.1°F5.6°C 34.0°F1.1°C 73% 8.6 mph NW13.8 kmh NW 12.5 mph20.1 kmh 29.74 in1007.1 mb 0.00 in0.0 mm 0.00 in0.0 mm 0.02 in0.5 mm
10:00 PM 41.7°F5.4°C 34.7°F1.5°C 76% 7.9 mph N12.7 kmh N 10.8 mph17.4 kmh 29.73 in1006.8 mb 0.01 in0.3 mm 0.01 in0.3 mm 0.04 in1.0 mm
10:10 PM 41.7°F5.4°C 35.4°F1.9°C 78% 8.3 mph NE13.4 kmh NE 10.1 mph16.3 kmh 29.73 in1006.8 mb 0.01 in0.3 mm 0.00 in0.0 mm 0.04 in1.0 mm
10:20 PM 41.9°F5.5°C 35.2°F1.8°C 77% 7.0 mph N11.3 kmh N 8.4 mph13.5 kmh 29.73 in1006.8 mb 0.01 in0.3 mm 0.00 in0.0 mm 0.04 in1.0 mm
10:30 PM 41.9°F5.5°C 34.9°F1.6°C 76% 6.9 mph NNE11.1 kmh NNE 10.8 mph17.4 kmh 29.73 in1006.8 mb 0.01 in0.3 mm 0.00 in0.0 mm 0.04 in1.0 mm
10:40 PM 41.7°F5.4°C 35.0°F1.7°C 77% 5.1 mph N8.2 kmh N 9.1 mph14.6 kmh 29.72 in1006.4 mb 0.01 in0.3 mm 0.00 in0.0 mm 0.04 in1.0 mm
10:50 PM 41.4°F5.2°C 35.3°F1.8°C 79% 6.9 mph NW11.1 kmh NW 9.1 mph14.6 kmh 29.72 in1006.4 mb 0.01 in0.3 mm 0.00 in0.0 mm 0.04 in1.0 mm
11:00 PM 40.8°F4.9°C 35.1°F1.7°C 80% 8.8 mph ENE14.2 kmh ENE 11.8 mph19.0 kmh 29.72 in1006.4 mb 0.01 in0.3 mm 0.00 in0.0 mm 0.05 in1.3 mm
11:10 PM 40.8°F4.9°C 35.1°F1.7°C 80% 6.6 mph NE10.6 kmh NE 6.6 mph10.6 kmh 29.72 in1006.4 mb 0.01 in0.3 mm 0.00 in0.0 mm 0.05 in1.3 mm
11:20 PM 40.5°F4.7°C 35.1°F1.7°C 81% 4.6 mph N7.4 kmh N 6.6 mph10.6 kmh 29.72 in1006.4 mb 0.02 in0.5 mm 0.06 in1.5 mm 0.06 in1.5 mm
11:30 PM 40.5°F4.7°C 35.1°F1.7°C 81% 5.0 mph SW8.0 kmh SW 7.6 mph12.2 kmh 29.71 in1006.1 mb 0.04 in1.0 mm 0.12 in3.0 mm 0.07 in1.8 mm
11:40 PM 40.3°F4.6°C 34.9°F1.6°C 81% 5.7 mph NW9.2 kmh NW 7.6 mph12.2 kmh 29.71 in1006.1 mb 0.04 in1.0 mm 0.00 in0.0 mm 0.07 in1.8 mm
11:50 PM 40.5°F4.7°C 35.4°F1.9°C 82% 4.4 mph NE7.1 kmh NE 5.9 mph9.5 kmh 29.71 in1006.1 mb 0.04 in1.0 mm 0.00 in0.0 mm 0.07 in1.8 mm